Time;durP1;ratioP1;P1;durP2;ratioP2;P2;SDS_P1;SDS_P2;PMS_P1;PMS_P2;Temp;Humidity;BMP_temperature;BMP_pressure;BME280_temperature;BME280_humidity;BME280_pressure;Samples;Min_cycle;Max_cycle;Signal;HPM_P1;HPM_P2
2021/09/29 00:01:26;;;;;;;9.50;7.47;;;15.30;99.90;;;;;;5051951;28;20177;-68
2021/09/29 00:03:52;;;;;;;9.03;7.13;;;15.30;99.90;;;;;;5052852;28;20177;-68
2021/09/29 00:06:17;;;;;;;8.60;7.70;;;15.40;99.90;;;;;;5052483;28;20179;-72
2021/09/29 00:08:43;;;;;;;7.90;7.20;;;15.40;99.90;;;;;;5032513;28;20186;-68
2021/09/29 00:11:09;;;;;;;7.20;6.53;;;15.40;99.90;;;;;;5032736;28;20185;-68
2021/09/29 00:13:35;;;;;;;7.50;6.57;;;15.40;99.90;;;;;;5031540;28;20181;-68
2021/09/29 00:16:00;;;;;;;11.67;7.23;;;15.40;99.90;;;;;;5014945;28;20635;-68
2021/09/29 00:18:26;;;;;;;8.73;6.50;;;15.40;99.90;;;;;;5047905;28;20485;-68
2021/09/29 00:20:52;;;;;;;8.50;6.57;;;15.40;99.90;;;;;;5032914;28;20183;-69
2021/09/29 00:23:18;;;;;;;8.03;7.20;;;15.40;99.90;;;;;;5043328;28;20618;-69
2021/09/29 00:25:44;;;;;;;11.13;7.17;;;15.40;99.90;;;;;;5031612;28;20674;-68
2021/09/29 00:28:09;;;;;;;7.87;7.13;;;15.30;99.90;;;;;;5015001;28;20457;-68
2021/09/29 00:30:49;;;;;;;9.87;7.93;;;15.40;99.90;;;;;;5031668;28;20177;-68
2021/09/29 00:33:19;;;;;;;9.77;6.93;;;15.40;99.90;;;;;;5032424;28;20166;-66
2021/09/29 00:35:46;;;;;;;10.30;7.20;;;15.40;99.90;;;;;;5049136;28;20529;-67
2021/09/29 00:38:12;;;;;;;8.20;6.90;;;15.40;99.90;;;;;;5052197;28;20917;-67
2021/09/29 00:40:38;;;;;;;7.53;6.83;;;15.40;99.90;;;;;;5051395;28;20491;-67
2021/09/29 00:43:04;;;;;;;7.80;7.10;;;15.30;99.90;;;;;;5052199;28;20502;-67
2021/09/29 00:45:30;;;;;;;7.40;6.70;;;15.40;99.90;;;;;;5034610;28;20488;-68
2021/09/29 00:47:55;;;;;;;6.63;5.90;;;15.40;99.90;;;;;;5014287;28;20516;-68
2021/09/29 00:50:21;;;;;;;6.77;5.93;;;15.40;99.90;;;;;;5032182;28;20571;-68
2021/09/29 00:52:47;;;;;;;7.60;5.57;;;15.40;99.90;;;;;;5031414;28;20678;-67
2021/09/29 00:55:14;;;;;;;7.47;5.93;;;15.40;99.90;;;;;;5045204;28;20200;-67
2021/09/29 00:57:40;;;;;;;5.90;5.10;;;15.40;99.90;;;;;;5050968;28;20411;-67
2021/09/29 01:00:08;;;;;;;6.73;5.57;;;15.40;99.90;;;;;;5051463;28;20484;-67
2021/09/29 01:02:34;;;;;;;6.93;5.70;;;15.40;99.90;;;;;;5051199;28;20414;-67
2021/09/29 01:05:00;;;;;;;6.70;5.77;;;15.40;99.90;;;;;;5040230;28;20422;-68
2021/09/29 01:07:46;;;;;;;6.63;5.70;;;15.40;99.90;;;;;;5031619;28;20189;-74
2021/09/29 01:10:21;;;;;;;6.37;5.57;;;15.40;99.90;;;;;;5032137;28;20397;-67
2021/09/29 01:13:02;;;;;;;5.87;5.37;;;15.40;99.90;;;;;;5031113;28;21038;-68
2021/09/29 01:15:31;;;;;;;6.07;5.47;;;15.40;99.90;;;;;;5031731;28;20796;-74
2021/09/29 01:18:20;;;;;;;6.37;5.80;;;15.40;99.90;;;;;;5031950;28;20412;-67
2021/09/29 01:20:57;;;;;;;6.43;5.83;;;15.40;99.90;;;;;;5031176;28;20404;-67
2021/09/29 01:23:40;;;;;;;6.33;5.50;;;15.40;99.90;;;;;;5031921;28;20392;-67
2021/09/29 01:26:15;;;;;;;7.60;6.03;;;15.40;99.90;;;;;;5032391;28;20504;-67
2021/09/29 01:28:56;;;;;;;8.07;6.33;;;15.40;99.90;;;;;;5050995;28;20407;-67
2021/09/29 01:31:23;;;;;;;6.57;5.77;;;15.40;99.90;;;;;;5055259;28;20399;-67
2021/09/29 01:33:51;;;;;;;7.33;6.13;;;15.40;99.90;;;;;;5053932;28;20398;-67
2021/09/29 01:36:18;;;;;;;6.40;5.80;;;15.40;99.90;;;;;;5035562;28;20483;-67
2021/09/29 01:38:49;;;;;;;6.60;5.57;;;15.40;99.90;;;;;;5034798;28;20465;-67
2021/09/29 01:41:15;;;;;;;6.03;5.53;;;15.40;99.90;;;;;;5035569;28;20395;-67
2021/09/29 01:43:40;;;;;;;7.97;5.03;;;15.40;99.90;;;;;;5034306;28;20412;-67
2021/09/29 01:46:07;;;;;;;9.33;5.80;;;15.30;99.90;;;;;;5036303;28;20255;-70
2021/09/29 01:48:41;;;;;;;7.17;5.13;;;15.30;99.90;;;;;;5034629;28;20254;-68
2021/09/29 01:51:07;;;;;;;6.67;5.43;;;15.30;99.90;;;;;;5035364;28;20913;-67
2021/09/29 01:53:33;;;;;;;7.87;4.80;;;15.30;99.90;;;;;;5034476;28;20439;-67
2021/09/29 01:56:00;;;;;;;7.90;5.63;;;15.30;99.90;;;;;;5035183;28;20958;-67
2021/09/29 01:58:29;;;;;;;6.23;5.23;;;15.30;99.90;;;;;;5037312;28;20436;-67
2021/09/29 02:00:55;;;;;;;5.20;4.70;;;15.30;99.90;;;;;;5054760;28;20956;-67
2021/09/29 02:03:21;;;;;;;7.50;5.37;;;15.30;99.90;;;;;;5055046;28;20501;-67
2021/09/29 02:05:50;;;;;;;5.90;5.40;;;15.30;99.90;;;;;;5054196;28;20515;-67
2021/09/29 02:08:18;;;;;;;5.57;5.03;;;15.20;99.90;;;;;;5054982;28;20503;-67
2021/09/29 02:10:44;;;;;;;5.30;4.80;;;15.20;99.90;;;;;;5050033;28;20419;-67
2021/09/29 02:13:10;;;;;;;5.60;5.10;;;15.20;99.90;;;;;;5034681;28;20454;-67
2021/09/29 02:15:36;;;;;;;10.27;5.80;;;15.10;99.90;;;;;;5016320;28;20806;-67
2021/09/29 02:18:01;;;;;;;6.13;5.20;;;15.10;99.90;;;;;;5034798;28;20201;-67
2021/09/29 02:20:27;;;;;;;5.37;4.87;;;15.10;99.90;;;;;;5034823;28;20175;-67
2021/09/29 02:22:53;;;;;;;5.93;5.33;;;15.10;99.90;;;;;;5033599;28;20179;-67
2021/09/29 02:25:19;;;;;;;7.10;4.73;;;15.10;99.90;;;;;;5034777;28;20179;-67
2021/09/29 02:27:45;;;;;;;6.70;5.07;;;15.10;99.90;;;;;;5033851;28;20181;-67
2021/09/29 02:30:12;;;;;;;5.30;4.87;;;15.10;99.90;;;;;;5034611;28;20194;-67
2021/09/29 02:32:38;;;;;;;5.93;5.23;;;15.00;99.90;;;;;;5034049;28;20411;-68
2021/09/29 02:35:06;;;;;;;7.00;6.30;;;15.00;99.90;;;;;;5036475;28;20458;-67
2021/09/29 02:37:32;;;;;;;7.40;6.70;;;15.00;99.90;;;;;;5053817;28;20476;-75
2021/09/29 02:39:58;;;;;;;7.17;6.00;;;15.00;99.90;;;;;;5053874;28;20417;-67
2021/09/29 02:42:23;;;;;;;7.80;6.67;;;15.00;99.90;;;;;;5053978;28;20586;-67
2021/09/29 02:44:49;;;;;;;6.97;6.37;;;15.00;99.90;;;;;;5035407;28;20697;-67
2021/09/29 02:47:15;;;;;;;6.97;6.47;;;15.00;99.90;;;;;;5044591;28;20224;-67
2021/09/29 02:49:40;;;;;;;7.17;6.50;;;15.00;99.90;;;;;;5042153;28;20645;-67
2021/09/29 02:52:06;;;;;;;7.50;6.63;;;15.00;99.90;;;;;;5033179;28;20535;-67
2021/09/29 02:54:32;;;;;;;6.13;5.70;;;15.00;99.90;;;;;;5053767;28;20180;-75
2021/09/29 02:56:57;;;;;;;6.73;6.07;;;15.00;99.90;;;;;;5044735;28;20185;-67
2021/09/29 02:59:23;;;;;;;6.73;6.10;;;15.00;99.90;;;;;;5042644;28;20625;-68
2021/09/29 03:01:49;;;;;;;8.13;6.10;;;15.00;99.90;;;;;;5040713;28;20212;-67
2021/09/29 03:04:15;;;;;;;6.00;5.50;;;15.00;99.90;;;;;;5033982;28;20172;-67
2021/09/29 03:06:41;;;;;;;7.10;6.40;;;15.00;99.90;;;;;;5046374;28;20469;-67
2021/09/29 03:09:07;;;;;;;7.03;5.40;;;14.90;99.90;;;;;;5053910;28;20167;-67
2021/09/29 03:11:33;;;;;;;6.07;4.93;;;14.90;99.90;;;;;;5040919;28;20174;-75
2021/09/29 03:13:59;;;;;;;5.70;5.30;;;14.90;99.90;;;;;;5033276;28;20426;-67
2021/09/29 03:16:25;;;;;;;6.00;5.60;;;15.00;99.90;;;;;;5037567;28;20497;-67
2021/09/29 03:18:51;;;;;;;7.07;5.50;;;15.00;99.90;;;;;;5044254;28;20829;-67
2021/09/29 03:21:17;;;;;;;6.33;5.73;;;15.00;99.90;;;;;;5044398;28;20560;-68
2021/09/29 03:23:43;;;;;;;6.10;5.50;;;15.00;99.90;;;;;;5032044;28;20186;-67
2021/09/29 03:26:08;;;;;;;8.37;5.43;;;15.00;99.90;;;;;;5053449;28;20420;-67
2021/09/29 03:28:35;;;;;;;6.77;6.07;;;15.00;99.90;;;;;;5053199;28;20179;-75
2021/09/29 03:31:00;;;;;;;6.20;5.30;;;15.00;99.90;;;;;;5052890;28;20418;-67
2021/09/29 03:33:26;;;;;;;5.60;5.17;;;15.00;99.90;;;;;;5053273;28;20472;-67
2021/09/29 03:35:52;;;;;;;5.77;5.33;;;15.00;99.90;;;;;;5051759;28;20676;-67
2021/09/29 03:38:17;;;;;;;6.80;5.57;;;15.00;99.90;;;;;;5052679;28;20187;-67
2021/09/29 03:40:43;;;;;;;6.47;5.33;;;15.00;99.90;;;;;;5052116;28;20183;-67
2021/09/29 03:43:09;;;;;;;6.10;5.60;;;15.00;99.90;;;;;;5053121;28;20226;-67
2021/09/29 03:45:35;;;;;;;8.30;6.60;;;15.00;99.90;;;;;;5052424;28;20244;-74
2021/09/29 03:48:01;;;;;;;8.40;5.60;;;15.00;99.90;;;;;;5052729;28;20415;-67
2021/09/29 03:50:27;;;;;;;7.10;6.60;;;15.00;99.90;;;;;;5051497;28;20438;-67
2021/09/29 03:52:53;;;;;;;8.43;4.97;;;15.00;99.90;;;;;;5051432;28;20588;-67
2021/09/29 03:55:21;;;;;;;8.33;7.50;;;15.00;99.90;;;;;;5052836;28;20937;-67
2021/09/29 03:57:47;;;;;;;5.40;4.90;;;15.00;99.90;;;;;;5051875;28;20642;-67
2021/09/29 04:00:13;;;;;;;6.70;6.20;;;15.00;99.90;;;;;;5052758;28;20411;-67
2021/09/29 04:02:40;;;;;;;6.30;5.70;;;15.00;99.90;;;;;;5037363;28;20270;-68
2021/09/29 04:05:07;;;;;;;6.00;5.40;;;15.00;99.90;;;;;;5032818;28;20407;-67
2021/09/29 04:07:32;;;;;;;6.13;5.63;;;15.00;99.90;;;;;;5015094;28;20465;-67
2021/09/29 04:09:58;;;;;;;7.07;6.47;;;15.00;99.90;;;;;;5031834;28;20951;-67
2021/09/29 04:12:24;;;;;;;5.40;5.00;;;15.10;99.90;;;;;;5032832;28;20230;-67
2021/09/29 04:14:53;;;;;;;6.17;5.57;;;15.10;99.90;;;;;;5031558;28;20196;-67
2021/09/29 04:17:19;;;;;;;7.40;5.90;;;15.10;99.90;;;;;;5049337;28;20192;-68
2021/09/29 04:19:45;;;;;;;5.97;5.40;;;15.10;99.90;;;;;;5049749;28;20468;-67
2021/09/29 04:22:11;;;;;;;7.80;7.20;;;15.10;99.90;;;;;;5052528;28;20419;-67
2021/09/29 04:24:41;;;;;;;5.40;4.90;;;15.00;99.90;;;;;;5052158;28;20406;-74
2021/09/29 04:27:08;;;;;;;6.90;6.50;;;15.00;99.90;;;;;;5052209;28;20898;-68
2021/09/29 04:29:35;;;;;;;6.50;5.47;;;15.00;99.90;;;;;;5050626;28;20425;-67
2021/09/29 04:32:03;;;;;;;7.33;6.73;;;15.10;99.90;;;;;;5051613;28;20425;-68
2021/09/29 04:34:28;;;;;;;6.63;5.10;;;15.00;99.90;;;;;;5034656;28;20414;-67
2021/09/29 04:36:54;;;;;;;5.33;4.93;;;15.00;99.90;;;;;;5016982;28;20626;-68
2021/09/29 04:39:20;;;;;;;7.70;5.30;;;15.00;99.90;;;;;;5051858;28;20182;-67
2021/09/29 04:41:46;;;;;;;7.60;5.20;;;15.00;99.90;;;;;;5051336;28;20183;-68
2021/09/29 04:44:11;;;;;;;6.30;5.70;;;15.00;99.90;;;;;;5048707;28;20180;-67
2021/09/29 04:46:37;;;;;;;8.13;7.43;;;15.10;99.90;;;;;;5031948;28;20228;-74
2021/09/29 04:49:03;;;;;;;5.70;5.20;;;15.10;99.90;;;;;;5031391;28;20188;-67
2021/09/29 04:51:29;;;;;;;5.50;5.00;;;15.10;99.90;;;;;;5031819;28;20267;-67
2021/09/29 04:53:55;;;;;;;5.13;4.73;;;15.10;99.90;;;;;;5013808;28;20411;-68
2021/09/29 04:56:21;;;;;;;5.93;5.43;;;15.10;99.90;;;;;;5032085;28;20537;-67
2021/09/29 04:58:47;;;;;;;6.60;6.00;;;15.10;99.90;;;;;;5032364;28;20649;-68
2021/09/29 05:01:19;;;;;;;7.70;7.00;;;15.00;99.90;;;;;;5014342;28;20186;-67
2021/09/29 05:03:44;;;;;;;7.50;6.53;;;15.10;99.90;;;;;;5032201;28;20165;-68
2021/09/29 05:06:10;;;;;;;5.47;5.07;;;15.10;99.90;;;;;;5035901;28;20422;-68
2021/09/29 05:08:37;;;;;;;4.90;4.50;;;15.10;99.90;;;;;;5035860;28;20188;-68
2021/09/29 05:11:20;;;;;;;5.17;4.47;;;15.10;99.90;;;;;;5035360;28;20204;-67
2021/09/29 05:13:46;;;;;;;7.13;6.80;;;15.00;99.90;;;;;;5046034;28;20455;-68
2021/09/29 05:16:13;;;;;;;6.77;6.07;;;15.00;99.90;;;;;;5055689;28;20941;-67
2021/09/29 05:18:39;;;;;;;5.37;4.97;;;15.00;99.90;;;;;;5038049;28;20488;-67
2021/09/29 05:21:05;;;;;;;8.43;7.00;;;15.00;99.90;;;;;;5038884;28;20426;-67
2021/09/29 05:23:31;;;;;;;6.40;5.80;;;15.00;99.90;;;;;;5035888;28;20481;-67
2021/09/29 05:25:57;;;;;;;6.30;5.40;;;14.90;99.90;;;;;;5035004;28;20936;-67
2021/09/29 05:28:26;;;;;;;5.50;5.00;;;15.00;99.90;;;;;;5035767;28;20411;-67
2021/09/29 05:30:52;;;;;;;5.90;5.37;;;14.90;99.90;;;;;;5034960;28;20414;-67
2021/09/29 05:33:18;;;;;;;7.87;5.20;;;14.90;99.90;;;;;;5036646;28;20423;-67
2021/09/29 05:35:44;;;;;;;5.30;4.90;;;14.90;99.90;;;;;;5034797;28;20199;-75
2021/09/29 05:38:10;;;;;;;4.97;4.40;;;14.90;99.90;;;;;;5035579;28;20276;-67
2021/09/29 05:40:35;;;;;;;7.20;5.07;;;14.90;99.90;;;;;;5035271;28;20176;-67
2021/09/29 05:43:01;;;;;;;6.93;6.43;;;14.90;99.90;;;;;;5034675;28;20759;-67
2021/09/29 05:45:27;;;;;;;6.13;5.63;;;14.90;99.90;;;;;;5034967;28;20175;-67
2021/09/29 05:47:53;;;;;;;5.73;5.23;;;14.90;99.90;;;;;;5050638;28;20246;-67
2021/09/29 05:50:19;;;;;;;8.73;8.03;;;14.90;99.90;;;;;;5055283;28;20176;-67
2021/09/29 05:52:44;;;;;;;6.50;5.93;;;14.90;99.90;;;;;;5054126;28;20747;-74
2021/09/29 05:55:16;;;;;;;7.87;7.10;;;14.90;99.90;;;;;;5054760;28;20259;-67
2021/09/29 05:57:42;;;;;;;5.33;4.90;;;14.90;99.90;;;;;;5032429;28;20184;-74
2021/09/29 06:00:08;;;;;;;6.57;5.00;;;14.90;99.90;;;;;;5016422;28;20428;-67
2021/09/29 06:02:34;;;;;;;9.10;5.40;;;14.90;99.90;;;;;;5030747;28;20274;-67
2021/09/29 06:05:00;;;;;;;8.07;7.53;;;14.90;99.90;;;;;;5054154;28;20500;-67
2021/09/29 06:07:26;;;;;;;6.17;5.17;;;14.90;99.90;;;;;;5054979;28;20179;-67
2021/09/29 06:09:51;;;;;;;8.07;7.33;;;14.90;99.90;;;;;;5054611;28;20212;-68
2021/09/29 06:12:17;;;;;;;7.10;5.90;;;14.90;99.90;;;;;;5055109;28;20181;-67
2021/09/29 06:14:49;;;;;;;6.50;6.00;;;14.90;99.90;;;;;;5038134;28;20174;-75
2021/09/29 06:19:53;;;;;;;6.80;6.30;;;14.90;99.90;;;;;;5034710;28;20399;-67
2021/09/29 06:22:20;;;;;;;6.37;5.80;;;15.00;99.90;;;;;;5032071;28;20415;-68
2021/09/29 06:24:46;;;;;;;6.73;5.60;;;15.00;99.90;;;;;;5034720;28;20407;-68
2021/09/29 06:27:11;;;;;;;6.60;5.33;;;15.00;99.90;;;;;;5046989;28;20415;-67
2021/09/29 06:29:37;;;;;;;7.40;5.20;;;15.00;99.90;;;;;;5034462;28;20203;-69
2021/09/29 06:32:04;;;;;;;6.73;5.50;;;15.10;99.90;;;;;;5043509;28;20183;-70
2021/09/29 06:34:30;;;;;;;7.40;6.50;;;15.40;99.90;;;;;;5035849;28;20631;-70
2021/09/29 06:36:56;;;;;;;6.27;5.70;;;15.60;99.90;;;;;;5034227;28;20597;-70
2021/09/29 06:39:22;;;;;;;9.20;6.53;;;15.80;99.90;;;;;;5049508;28;20419;-69
2021/09/29 06:41:48;;;;;;;6.90;6.30;;;16.00;99.90;;;;;;5054272;28;20903;-70
2021/09/29 06:44:14;;;;;;;7.30;4.97;;;16.10;99.90;;;;;;5054332;28;20181;-70
2021/09/29 06:46:40;;;;;;;6.60;4.77;;;16.00;99.90;;;;;;5054104;28;20491;-70
2021/09/29 06:49:06;;;;;;;5.23;4.73;;;16.10;99.90;;;;;;5045333;28;21100;-70
2021/09/29 06:51:32;;;;;;;4.50;4.20;;;16.20;99.90;;;;;;5027278;28;20444;-70
2021/09/29 06:53:58;;;;;;;6.63;6.10;;;16.20;99.90;;;;;;5053865;28;20500;-69
2021/09/29 06:56:24;;;;;;;4.10;3.70;;;16.30;99.90;;;;;;5052705;28;20595;-69
2021/09/29 06:58:52;;;;;;;5.40;4.90;;;16.40;99.90;;;;;;5038905;28;20519;-70
2021/09/29 07:01:19;;;;;;;4.27;3.97;;;16.30;99.50;;;;;;5051905;28;20412;-69
2021/09/29 07:03:44;;;;;;;4.10;3.70;;;16.40;99.70;;;;;;5051281;28;20424;-70
2021/09/29 07:06:11;;;;;;;5.80;5.40;;;16.50;99.90;;;;;;5042767;28;20416;-70
2021/09/29 07:08:36;;;;;;;4.50;4.20;;;16.60;99.30;;;;;;5054161;28;20432;-70
2021/09/29 07:11:02;;;;;;;4.50;4.00;;;16.50;99.70;;;;;;5046703;28;20908;-70
2021/09/29 07:13:29;;;;;;;5.87;4.60;;;16.50;99.90;;;;;;5016539;28;20261;-70
2021/09/29 07:15:55;;;;;;;5.13;4.83;;;16.70;99.40;;;;;;5035022;28;21023;-70
2021/09/29 07:18:20;;;;;;;3.80;3.50;;;16.70;99.10;;;;;;5054014;28;20495;-69
2021/09/29 07:20:46;;;;;;;4.90;4.50;;;16.70;98.90;;;;;;5053531;28;20507;-85
2021/09/29 07:23:12;;;;;;;5.83;5.20;;;16.70;98.70;;;;;;5053907;28;20205;-69
2021/09/29 07:25:38;;;;;;;3.37;3.17;;;16.60;99.30;;;;;;5053904;28;20640;-69
2021/09/29 07:28:05;;;;;;;5.17;4.20;;;16.50;99.00;;;;;;5045528;28;20248;-69
2021/09/29 07:30:32;;;;;;;4.10;3.80;;;16.20;99.90;;;;;;5018143;28;20174;-70
2021/09/29 07:33:02;;;;;;;6.33;3.63;;;16.20;99.90;;;;;;5024906;28;20449;-69
2021/09/29 07:35:29;;;;;;;4.20;3.80;;;16.20;99.90;;;;;;5044367;28;20458;-69
2021/09/29 07:37:55;;;;;;;4.30;4.10;;;16.30;99.50;;;;;;5051303;28;20425;-69
2021/09/29 07:40:21;;;;;;;3.80;3.60;;;16.30;99.90;;;;;;5050125;28;20424;-69
2021/09/29 07:42:47;;;;;;;4.40;4.10;;;16.40;99.50;;;;;;5032941;28;20179;-84
2021/09/29 07:45:13;;;;;;;4.63;4.27;;;16.40;99.30;;;;;;5036597;28;20436;-70
2021/09/29 07:47:39;;;;;;;4.13;3.80;;;16.50;99.60;;;;;;5048655;28;20185;-70
2021/09/29 07:50:06;;;;;;;4.53;4.20;;;16.40;99.30;;;;;;5015052;28;20187;-69
2021/09/29 07:52:33;;;;;;;4.50;4.20;;;16.30;99.90;;;;;;5033431;28;20175;-70
2021/09/29 07:54:58;;;;;;;4.57;4.20;;;16.40;99.90;;;;;;5042445;28;20419;-70
2021/09/29 07:57:24;;;;;;;4.30;4.00;;;16.40;99.90;;;;;;5053133;28;20426;-70
2021/09/29 07:59:50;;;;;;;5.73;4.90;;;16.10;99.90;;;;;;5052706;28;20572;-80
2021/09/29 08:02:15;;;;;;;4.43;4.10;;;15.90;99.90;;;;;;5052432;28;20177;-70
2021/09/29 08:04:41;;;;;;;4.33;3.93;;;16.10;99.90;;;;;;5053066;28;20186;-70
2021/09/29 08:07:08;;;;;;;5.37;4.60;;;16.00;99.90;;;;;;5052469;28;20165;-69
2021/09/29 08:09:34;;;;;;;5.63;4.07;;;15.80;99.90;;;;;;5052475;28;20180;-69
2021/09/29 08:11:59;;;;;;;4.73;4.10;;;15.90;99.90;;;;;;5034425;28;20430;-68
2021/09/29 08:14:25;;;;;;;4.97;4.57;;;16.00;99.90;;;;;;5052398;28;20419;-69
2021/09/29 08:16:51;;;;;;;4.50;4.10;;;15.90;99.90;;;;;;5038663;28;20205;-76
2021/09/29 08:19:18;;;;;;;4.73;4.40;;;15.80;99.90;;;;;;5051370;28;20433;-67
2021/09/29 08:21:46;;;;;;;5.43;5.03;;;15.90;99.90;;;;;;5021696;28;20420;-67
2021/09/29 08:24:25;;;;;;;5.10;4.80;;;15.90;99.90;;;;;;5046197;28;20419;-68
2021/09/29 08:32:23;;;;;;;4.43;4.03;;;15.70;99.90;;;;;;5037990;28;20925;-68
2021/09/29 08:42:30;;;;;;;4.63;4.23;;;15.80;99.90;;;;;;5048052;28;20415;-67
2021/09/29 08:45:12;;;;;;;4.43;3.60;;;15.80;99.90;;;;;;5052184;28;20464;-67
2021/09/29 08:55:48;;;;;;;4.17;3.80;;;15.60;99.90;;;;;;5037795;28;20470;-71
2021/09/29 09:17:37;;;;;;;5.43;4.80;;;15.50;99.90;;;;;;5051945;28;20482;-69
2021/09/29 09:20:11;;;;;;;4.77;4.40;;;15.40;99.90;;;;;;5051214;28;20407;-69
2021/09/29 09:22:37;;;;;;;4.97;4.43;;;15.30;99.90;;;;;;5051049;28;20417;-69
2021/09/29 09:25:04;;;;;;;5.50;5.10;;;15.30;99.90;;;;;;5035434;28;20433;-69
2021/09/29 09:27:45;;;;;;;4.50;4.20;;;15.40;99.90;;;;;;5033789;28;20434;-69
2021/09/29 09:30:24;;;;;;;4.43;4.03;;;15.50;99.90;;;;;;5031151;28;20408;-69
2021/09/29 09:32:55;;;;;;;4.50;4.10;;;15.50;99.90;;;;;;5014141;28;20510;-69
2021/09/29 09:35:21;;;;;;;4.50;4.20;;;15.40;99.90;;;;;;5045486;28;20458;-69
2021/09/29 09:37:54;;;;;;;4.70;4.17;;;15.40;99.90;;;;;;5051711;28;20419;-70
2021/09/29 09:40:21;;;;;;;5.10;4.70;;;15.40;99.90;;;;;;5034449;28;20915;-68
2021/09/29 09:42:55;;;;;;;7.27;5.80;;;15.30;99.90;;;;;;5032191;28;20456;-69
2021/09/29 09:45:39;;;;;;;4.53;4.33;;;15.30;99.90;;;;;;5032368;28;20477;-69
2021/09/29 09:48:13;;;;;;;4.57;4.20;;;15.40;99.90;;;;;;5031792;28;20404;-69
2021/09/29 09:50:39;;;;;;;5.00;4.73;;;15.30;99.90;;;;;;5032794;28;20408;-68
2021/09/29 09:53:12;;;;;;;5.13;4.63;;;15.40;99.90;;;;;;5039064;28;20949;-69
2021/09/29 09:55:38;;;;;;;5.87;5.53;;;15.50;99.90;;;;;;5055600;28;20434;-67
2021/09/29 09:58:04;;;;;;;4.20;3.90;;;15.60;99.90;;;;;;5054974;28;20543;-68
2021/09/29 10:00:32;;;;;;;4.73;4.43;;;15.60;99.90;;;;;;5055512;28;20411;-67
2021/09/29 10:03:00;;;;;;;5.83;5.30;;;15.60;99.90;;;;;;5054812;28;20178;-68
2021/09/29 10:05:27;;;;;;;4.43;4.20;;;15.60;99.90;;;;;;5055348;28;20770;-67
2021/09/29 10:07:53;;;;;;;4.10;3.90;;;15.60;99.90;;;;;;5041489;28;20434;-67
2021/09/29 10:24:11;;;;;;;4.60;4.30;;;15.70;99.90;;;;;;5038256;28;20415;-68
2021/09/29 10:26:37;;;;;;;4.80;4.30;;;15.80;99.90;;;;;;5053155;28;20401;-68
2021/09/29 10:29:09;;;;;;;4.30;4.00;;;15.90;99.90;;;;;;5034905;28;20420;-69
2021/09/29 10:34:24;;;;;;;4.23;3.93;;;16.00;99.90;;;;;;5034212;28;20832;-68
2021/09/29 10:43:00;;;;;;;3.37;3.13;;;15.70;99.90;;;;;;4973629;28;20564;-69
2021/09/29 10:45:53;;;;;;;4.27;3.97;;;15.50;99.90;;;;;;5029230;28;20561;-68
2021/09/29 11:03:31;;;;;;;3.77;3.60;;;15.20;99.90;;;;;;5054367;28;20826;-69
2021/09/29 11:28:00;;;;;;;2.33;2.10;;;15.40;99.90;;;;;;5051986;28;20854;-68
2021/09/29 11:29:49;;;;;;;2.50;2.40;;;15.40;99.90;;;;;;5039450;28;20423;-69
2021/09/29 11:32:35;;;;;;;2.63;2.53;;;15.40;99.90;;;;;;5034024;28;20480;-68
2021/09/29 12:08:34;;;;;;;3.40;3.10;;;15.60;99.90;;;;;;5032611;28;20413;-69
2021/09/29 12:11:04;;;;;;;3.17;2.97;;;15.70;99.90;;;;;;5037227;28;20489;-69
2021/09/29 12:13:46;;;;;;;4.13;3.97;;;15.60;99.90;;;;;;5031559;28;20396;-69
2021/09/29 12:16:50;;;;;;;3.87;3.77;;;15.70;99.90;;;;;;5031617;28;20966;-70
2021/09/29 12:19:25;;;;;;;6.60;6.40;;;15.70;99.90;;;;;;5027407;28;20430;-69
2021/09/29 12:21:54;;;;;;;9.43;4.47;;;15.70;99.90;;;;;;5032737;28;20408;-68
2021/09/29 12:24:37;;;;;;;3.40;3.17;;;15.80;99.90;;;;;;5032129;28;20427;-69
2021/09/29 12:27:05;;;;;;;3.37;3.00;;;15.80;99.90;;;;;;5015569;28;20420;-68
2021/09/29 12:29:50;;;;;;;3.50;3.30;;;15.80;99.90;;;;;;5031923;28;20413;-68
2021/09/29 12:37:39;;;;;;;3.80;3.60;;;15.80;99.90;;;;;;5038613;28;20427;-69
2021/09/29 12:40:07;;;;;;;4.57;4.37;;;15.70;99.90;;;;;;5052595;28;20418;-68
2021/09/29 12:42:36;;;;;;;3.70;3.50;;;15.70;99.90;;;;;;5025714;28;20839;-68
2021/09/29 12:45:02;;;;;;;6.07;5.63;;;15.60;99.90;;;;;;5032860;28;20814;-68
2021/09/29 12:50:04;;;;;;;4.10;3.90;;;15.50;99.90;;;;;;5034972;28;20501;-69
2021/09/29 12:52:36;;;;;;;4.17;3.97;;;15.50;99.90;;;;;;5044856;28;20413;-69
2021/09/29 12:55:02;;;;;;;3.00;2.90;;;15.40;99.90;;;;;;5045403;28;20476;-69
2021/09/29 12:57:29;;;;;;;3.17;3.07;;;15.30;99.90;;;;;;5050658;28;20435;-69
2021/09/29 12:59:57;;;;;;;3.23;3.03;;;15.30;99.90;;;;;;5051889;28;20894;-69
2021/09/29 13:02:23;;;;;;;3.20;3.10;;;15.30;99.90;;;;;;5051761;28;20541;-69
2021/09/29 13:04:49;;;;;;;3.23;3.03;;;15.40;99.90;;;;;;5047227;28;20775;-69
2021/09/29 13:07:15;;;;;;;3.00;2.80;;;15.40;99.90;;;;;;5030937;28;20432;-69
2021/09/29 13:09:40;;;;;;;4.70;4.50;;;15.30;99.90;;;;;;5032052;28;20254;-69
2021/09/29 13:12:06;;;;;;;3.60;3.40;;;15.20;99.90;;;;;;5031969;28;20417;-69
2021/09/29 13:14:32;;;;;;;3.87;3.57;;;15.30;99.90;;;;;;5031503;28;20180;-69
2021/09/29 13:16:58;;;;;;;3.80;3.60;;;15.30;99.90;;;;;;5032227;28;20861;-69
2021/09/29 13:19:31;;;;;;;3.17;2.97;;;15.30;99.90;;;;;;5014198;28;20176;-69
2021/09/29 13:22:02;;;;;;;5.70;5.40;;;15.30;99.90;;;;;;5032360;28;20407;-69
2021/09/29 13:24:38;;;;;;;4.23;3.70;;;15.40;99.90;;;;;;5032171;28;20413;-69
2021/09/29 13:37:43;;;;;;;5.17;5.07;;;14.80;99.90;;;;;;5069662;28;20427;-69
2021/09/29 13:40:09;;;;;;;3.50;3.40;;;14.50;99.90;;;;;;5058719;28;20177;-72
2021/09/29 13:42:35;;;;;;;2.70;2.50;;;14.30;99.90;;;;;;5035174;28;20182;-74
2021/09/29 13:45:01;;;;;;;4.60;4.40;;;14.10;99.90;;;;;;5022356;28;20447;-73
2021/09/29 13:47:27;;;;;;;2.10;2.10;;;13.80;99.90;;;;;;5055269;28;20502;-72
2021/09/29 13:49:53;;;;;;;2.00;1.90;;;13.70;99.90;;;;;;5050873;28;20178;-72
2021/09/29 13:52:22;;;;;;;4.20;4.10;;;13.70;99.90;;;;;;5035148;28;20624;-69
2021/09/29 13:54:51;;;;;;;3.13;3.03;;;13.60;99.90;;;;;;5043504;28;20181;-69
2021/09/29 13:57:24;;;;;;;2.40;2.20;;;13.50;99.90;;;;;;5042596;28;20950;-69
2021/09/29 14:29:56;;;;;;;2.67;2.17;;;14.50;99.90;;;;;;5054665;28;20409;-69
2021/09/29 14:32:25;;;;;;;2.50;2.40;;;14.70;99.90;;;;;;5054308;28;20801;-69
2021/09/29 14:34:51;;;;;;;2.53;2.33;;;14.80;99.90;;;;;;5054500;28;20412;-72
2021/09/29 14:37:17;;;;;;;2.40;2.20;;;14.90;99.90;;;;;;5053408;28;20560;-72
2021/09/29 14:39:43;;;;;;;127.63;78.67;;;15.00;99.90;;;;;;5054501;28;20179;-72
2021/09/29 14:42:09;;;;;;;197.83;159.40;;;15.10;99.90;;;;;;5033076;28;20422;-69
2021/09/29 14:44:37;;;;;;;9.13;8.30;;;15.10;99.90;;;;;;5033375;28;20414;-70
2021/09/29 14:47:09;;;;;;;3.70;3.50;;;15.10;99.90;;;;;;5057965;28;20461;-69
2021/09/29 14:49:38;;;;;;;2.20;2.10;;;15.10;99.80;;;;;;5054748;28;20409;-69
2021/09/29 14:52:04;;;;;;;2.93;2.10;;;15.10;99.80;;;;;;5055878;28;20508;-69
2021/09/29 14:54:30;;;;;;;2.33;2.23;;;15.00;99.30;;;;;;5053865;28;20412;-69
2021/09/29 14:56:57;;;;;;;3.93;3.77;;;15.00;99.30;;;;;;5054371;28;21037;-69
2021/09/29 14:59:22;;;;;;;2.40;2.07;;;15.00;99.00;;;;;;5053900;28;20423;-69
2021/09/29 15:01:48;;;;;;;3.37;3.27;;;15.10;99.40;;;;;;5055976;28;20420;-69
2021/09/29 15:04:14;;;;;;;3.40;2.60;;;15.10;99.60;;;;;;5053212;28;20190;-71
2021/09/29 15:06:40;;;;;;;2.67;2.20;;;15.20;99.90;;;;;;5057465;28;20172;-69
2021/09/29 15:09:06;;;;;;;4.20;3.97;;;15.30;99.90;;;;;;5073230;28;20616;-69
2021/09/29 15:11:32;;;;;;;2.20;1.90;;;15.50;99.90;;;;;;5073331;28;20187;-69
2021/09/29 15:14:09;;;;;;;1.83;1.73;;;15.60;99.90;;;;;;5057152;28;20426;-68
2021/09/29 15:16:44;;;;;;;2.47;2.37;;;15.70;99.90;;;;;;5051719;28;20460;-69
2021/09/29 15:21:53;;;;;;;1.97;1.77;;;15.80;99.90;;;;;;5052135;28;20399;-69
2021/09/29 15:27:21;;;;;;;2.90;2.30;;;15.80;99.70;;;;;;5053272;28;20757;-69
2021/09/29 15:51:24;;;;;;;4.73;3.20;;;15.00;99.90;;;;;;5004938;28;20414;-69
2021/09/29 16:01:42;;;;;;;3.03;2.00;;;15.00;99.90;;;;;;5032832;28;20747;-69
2021/09/29 16:06:50;;;;;;;3.67;2.20;;;15.10;99.90;;;;;;5032721;28;20407;-68
2021/09/29 16:12:11;;;;;;;2.53;2.43;;;15.20;99.90;;;;;;5032942;28;20423;-69
2021/09/29 16:17:15;;;;;;;2.00;1.90;;;15.20;99.90;;;;;;5032612;28;20448;-69
2021/09/29 16:23:36;;;;;;;4.30;4.00;;;15.20;99.80;;;;;;5032200;28;20423;-69
2021/09/29 16:31:11;;;;;;;2.00;1.90;;;15.00;99.60;;;;;;4952054;29;20471;-69
2021/09/29 16:36:09;;;;;;;2.20;1.50;;;15.00;99.60;;;;;;5032499;28;20441;-69
2021/09/29 16:38:36;;;;;;;3.97;1.97;;;15.00;99.50;;;;;;5031601;28;20423;-69
2021/09/29 16:41:03;;;;;;;4.40;2.20;;;15.00;99.80;;;;;;5014895;28;20898;-69
2021/09/29 16:43:28;;;;;;;2.50;2.40;;;14.90;99.70;;;;;;5031630;28;20406;-69
2021/09/29 16:45:57;;;;;;;2.40;2.30;;;14.90;99.60;;;;;;5034169;28;20551;-69
2021/09/29 16:48:26;;;;;;;2.97;2.30;;;14.90;99.90;;;;;;5070671;28;20578;-80